Time;durP1;ratioP1;P1;durP2;ratioP2;P2;SDS_P1;SDS_P2;PMS_P1;PMS_P2;Temp;Humidity;BMP_temperature;BMP_pressure;BME280_temperature;BME280_humidity;BME280_pressure;Samples;Min_cycle;Max_cycle;Signal;HPM_P1;HPM_P2
2022/07/08 00:02:17;;;;;;;13.60;3.57;;;17.00;99.90;;;;;;5053811;28;20444;-60
2022/07/08 00:04:43;;;;;;;11.50;2.80;;;17.00;99.90;;;;;;5053780;28;21017;-60
2022/07/08 00:07:10;;;;;;;10.00;2.50;;;16.90;99.90;;;;;;5053776;28;21008;-60
2022/07/08 00:09:39;;;;;;;10.50;2.50;;;16.90;99.90;;;;;;5053833;28;20448;-59
2022/07/08 00:12:06;;;;;;;7.50;2.30;;;16.90;99.90;;;;;;5053633;28;20480;-60
2022/07/08 00:14:32;;;;;;;11.80;2.57;;;16.80;99.90;;;;;;5053653;28;20448;-59
2022/07/08 00:16:59;;;;;;;8.30;2.50;;;16.80;99.90;;;;;;5053574;28;20804;-60
2022/07/08 00:19:25;;;;;;;11.17;3.13;;;16.70;99.90;;;;;;5053675;28;20531;-60
2022/07/08 00:21:52;;;;;;;9.40;3.50;;;16.70;99.90;;;;;;5053665;28;20452;-60
2022/07/08 00:24:19;;;;;;;8.50;3.20;;;16.60;99.90;;;;;;5053446;28;20449;-59
2022/07/08 00:26:47;;;;;;;6.20;2.27;;;16.70;99.90;;;;;;5053423;28;20452;-60
2022/07/08 00:29:13;;;;;;;13.50;3.40;;;16.70;99.90;;;;;;5053329;28;20452;-61
2022/07/08 00:31:40;;;;;;;19.40;2.90;;;16.60;99.90;;;;;;5053182;28;20508;-60
2022/07/08 00:34:07;;;;;;;12.03;3.07;;;16.50;99.90;;;;;;5053436;28;20448;-60
2022/07/08 00:36:35;;;;;;;21.53;4.17;;;16.60;99.90;;;;;;5053353;28;20444;-60
2022/07/08 00:39:02;;;;;;;13.27;5.10;;;16.60;99.90;;;;;;5053283;28;20452;-60
2022/07/08 00:41:28;;;;;;;12.93;3.63;;;16.60;99.90;;;;;;5053120;28;20932;-60
2022/07/08 00:43:56;;;;;;;8.83;3.53;;;16.60;99.90;;;;;;5053039;28;20936;-60
2022/07/08 00:46:23;;;;;;;9.20;3.00;;;16.50;99.90;;;;;;5052781;28;20452;-60
2022/07/08 00:48:49;;;;;;;14.47;3.40;;;16.50;99.90;;;;;;5053198;28;20558;-60
2022/07/08 00:51:18;;;;;;;10.07;2.90;;;16.50;99.90;;;;;;5053045;28;20480;-60
2022/07/08 00:53:47;;;;;;;11.00;4.07;;;16.40;99.90;;;;;;5053016;28;20452;-60
2022/07/08 00:56:14;;;;;;;14.20;3.57;;;16.40;99.90;;;;;;5052788;28;20498;-60
2022/07/08 00:58:41;;;;;;;12.20;3.10;;;16.40;99.90;;;;;;5052845;28;20453;-60
2022/07/08 01:01:09;;;;;;;10.27;3.30;;;16.40;99.90;;;;;;5052766;28;20948;-60
2022/07/08 01:03:36;;;;;;;14.07;3.67;;;16.20;99.90;;;;;;5052943;28;20452;-60
2022/07/08 01:06:03;;;;;;;11.53;3.50;;;16.20;99.90;;;;;;5052856;28;20475;-60
2022/07/08 01:08:29;;;;;;;10.23;2.90;;;16.30;99.90;;;;;;5052855;28;20458;-60
2022/07/08 01:10:56;;;;;;;10.60;3.27;;;16.20;99.90;;;;;;5052751;28;20476;-61
2022/07/08 01:13:24;;;;;;;12.00;3.30;;;16.20;99.90;;;;;;5052775;28;20448;-60
2022/07/08 01:15:50;;;;;;;9.27;3.17;;;16.20;99.90;;;;;;5052935;28;20459;-60
2022/07/08 01:18:23;;;;;;;8.27;2.77;;;16.20;99.90;;;;;;5052728;28;20548;-61
2022/07/08 01:20:51;;;;;;;12.60;3.50;;;16.20;99.90;;;;;;5052792;28;20456;-60
2022/07/08 01:23:18;;;;;;;10.97;3.30;;;16.10;99.90;;;;;;5052703;28;20452;-60
2022/07/08 01:25:46;;;;;;;7.23;2.87;;;16.10;99.90;;;;;;5052591;28;20454;-60
2022/07/08 01:28:13;;;;;;;9.20;2.97;;;16.00;99.90;;;;;;5052823;28;20457;-60
2022/07/08 01:30:40;;;;;;;12.10;3.80;;;16.10;99.90;;;;;;5052695;28;20448;-60
2022/07/08 01:33:06;;;;;;;16.30;4.97;;;16.10;99.90;;;;;;5052696;28;20451;-60
2022/07/08 01:35:33;;;;;;;15.20;3.90;;;16.10;99.90;;;;;;5052964;28;20551;-60
2022/07/08 01:38:01;;;;;;;12.20;3.10;;;16.10;99.90;;;;;;5052504;28;20447;-60
2022/07/08 01:40:27;;;;;;;13.67;3.13;;;16.10;99.90;;;;;;5052664;28;20815;-60
2022/07/08 01:42:54;;;;;;;10.87;3.80;;;16.10;99.90;;;;;;5052618;28;20454;-60
2022/07/08 01:45:20;;;;;;;8.97;3.10;;;16.10;99.90;;;;;;5052587;28;20448;-60
2022/07/08 01:47:47;;;;;;;7.73;3.40;;;16.10;99.90;;;;;;5052496;28;20444;-60
2022/07/08 01:50:13;;;;;;;12.57;4.20;;;16.10;99.90;;;;;;5052423;28;20452;-60
2022/07/08 01:52:40;;;;;;;8.87;3.30;;;16.10;99.90;;;;;;5052233;28;20490;-60
2022/07/08 01:55:08;;;;;;;12.33;3.37;;;16.10;99.90;;;;;;5052556;28;20448;-60
2022/07/08 01:57:35;;;;;;;8.90;4.47;;;16.00;99.90;;;;;;5052185;28;20859;-60
2022/07/08 02:00:02;;;;;;;15.43;4.00;;;16.10;99.90;;;;;;5055165;28;20456;-60
2022/07/08 02:02:28;;;;;;;12.90;3.60;;;16.10;99.90;;;;;;5056185;28;20550;-60
2022/07/08 02:04:55;;;;;;;11.20;3.57;;;16.10;99.90;;;;;;5056076;28;20495;-60
2022/07/08 02:07:21;;;;;;;18.20;4.27;;;16.10;99.90;;;;;;5055909;28;20451;-60
2022/07/08 02:09:48;;;;;;;11.43;4.20;;;16.10;99.90;;;;;;5056172;28;20454;-61
2022/07/08 02:12:20;;;;;;;21.50;4.53;;;16.10;99.90;;;;;;5055973;28;20578;-60
2022/07/08 02:14:48;;;;;;;10.30;3.53;;;16.10;99.90;;;;;;5055974;28;20460;-60
2022/07/08 02:17:14;;;;;;;15.07;4.40;;;16.10;99.90;;;;;;5055843;28;20448;-60
2022/07/08 02:19:41;;;;;;;12.03;3.90;;;16.20;99.90;;;;;;5055712;28;20803;-60
2022/07/08 02:22:08;;;;;;;13.63;3.60;;;16.20;99.90;;;;;;5055980;28;20456;-60
2022/07/08 02:24:35;;;;;;;14.20;4.13;;;16.20;99.90;;;;;;5055879;28;20822;-60
2022/07/08 02:27:01;;;;;;;13.73;3.90;;;16.20;99.90;;;;;;5055814;28;20444;-60
2022/07/08 02:29:30;;;;;;;13.67;4.13;;;16.10;99.90;;;;;;5055489;28;20958;-60
2022/07/08 02:31:56;;;;;;;5.03;3.37;;;16.20;99.90;;;;;;5055529;28;20874;-60
2022/07/08 02:34:23;;;;;;;18.93;3.60;;;16.20;99.90;;;;;;5055385;28;20539;-61
2022/07/08 02:36:49;;;;;;;19.77;3.60;;;16.30;99.90;;;;;;5055617;28;20453;-61
2022/07/08 02:39:16;;;;;;;13.83;4.23;;;16.30;99.90;;;;;;5055577;28;20882;-60
2022/07/08 02:41:43;;;;;;;10.83;4.37;;;16.30;99.90;;;;;;5055465;28;20478;-60
2022/07/08 02:44:10;;;;;;;16.63;4.00;;;16.30;99.90;;;;;;5055225;28;20924;-60
2022/07/08 02:46:38;;;;;;;13.03;3.73;;;16.30;99.90;;;;;;5055212;28;20535;-60
2022/07/08 02:49:05;;;;;;;11.10;3.33;;;16.30;99.90;;;;;;5055677;28;20643;-61
2022/07/08 02:51:31;;;;;;;12.90;3.70;;;16.40;99.90;;;;;;5055217;28;20468;-61
2022/07/08 02:53:58;;;;;;;12.47;4.20;;;16.20;99.90;;;;;;5055211;28;20452;-60
2022/07/08 02:56:25;;;;;;;6.43;3.90;;;16.20;99.90;;;;;;5054868;28;21078;-60
2022/07/08 02:58:51;;;;;;;8.77;3.23;;;16.30;99.90;;;;;;5055108;28;20448;-60
2022/07/08 03:01:19;;;;;;;16.67;3.73;;;16.30;99.90;;;;;;5054944;28;20441;-61
2022/07/08 03:03:46;;;;;;;13.70;3.73;;;16.30;99.90;;;;;;5054878;28;20457;-60
2022/07/08 03:06:13;;;;;;;13.90;3.53;;;16.30;99.90;;;;;;5054968;28;20448;-60
2022/07/08 03:08:40;;;;;;;10.33;3.43;;;16.30;99.90;;;;;;5054954;28;20452;-60
2022/07/08 03:11:07;;;;;;;16.93;4.33;;;16.30;99.90;;;;;;5054241;28;20460;-61
2022/07/08 03:13:35;;;;;;;12.30;3.50;;;16.30;99.90;;;;;;5054759;28;20463;-60
2022/07/08 03:16:02;;;;;;;11.37;3.67;;;16.40;99.90;;;;;;5054647;28;20483;-60
2022/07/08 03:18:28;;;;;;;12.50;3.77;;;16.40;99.90;;;;;;5055153;28;20538;-60
2022/07/08 03:20:56;;;;;;;7.60;3.17;;;16.40;99.90;;;;;;5054617;28;20463;-60
2022/07/08 03:23:23;;;;;;;11.90;3.20;;;16.40;99.90;;;;;;5054615;28;20456;-61
2022/07/08 03:25:49;;;;;;;9.47;3.87;;;16.40;99.90;;;;;;5054572;28;20482;-60
2022/07/08 03:28:16;;;;;;;11.50;3.43;;;16.40;99.90;;;;;;5054471;28;20448;-61
2022/07/08 03:30:42;;;;;;;17.37;3.73;;;16.40;99.90;;;;;;5054383;28;20955;-60
2022/07/08 03:33:09;;;;;;;15.00;3.70;;;16.40;99.90;;;;;;5054442;28;20484;-61
2022/07/08 03:35:35;;;;;;;10.20;3.70;;;16.40;99.90;;;;;;5054362;28;20452;-60
2022/07/08 03:38:03;;;;;;;13.70;3.50;;;16.40;99.90;;;;;;5054411;28;20551;-60
2022/07/08 03:43:14;;;;;;;11.17;3.60;;;16.50;99.90;;;;;;5054173;28;20506;-60
2022/07/08 03:45:40;;;;;;;13.03;4.47;;;16.50;99.90;;;;;;5054256;28;20545;-60
2022/07/08 03:48:07;;;;;;;9.93;3.27;;;16.60;99.90;;;;;;5054183;28;20490;-60
2022/07/08 03:50:33;;;;;;;9.80;3.67;;;16.60;99.90;;;;;;5054150;28;20535;-60
2022/07/08 03:53:00;;;;;;;8.70;3.13;;;16.60;99.90;;;;;;5053943;28;20480;-60
2022/07/08 03:55:27;;;;;;;10.50;4.00;;;16.60;99.90;;;;;;5053873;28;20452;-61
2022/07/08 03:57:54;;;;;;;12.13;2.90;;;16.60;99.90;;;;;;5053749;28;20480;-60
2022/07/08 04:00:21;;;;;;;12.60;3.60;;;16.60;99.90;;;;;;5053955;28;20448;-60
2022/07/08 04:02:47;;;;;;;12.53;3.27;;;16.60;99.90;;;;;;5053643;28;20539;-60
2022/07/08 04:05:14;;;;;;;6.10;2.40;;;16.60;99.90;;;;;;5053680;28;20943;-60
2022/07/08 04:07:40;;;;;;;11.30;3.50;;;16.70;99.90;;;;;;5053747;28;20452;-60
2022/07/08 04:10:09;;;;;;;9.80;3.40;;;16.70;99.90;;;;;;5053497;28;20455;-60
2022/07/08 04:12:36;;;;;;;11.63;3.50;;;16.70;99.90;;;;;;5053698;28;20537;-60
2022/07/08 04:15:03;;;;;;;11.30;3.03;;;16.70;99.90;;;;;;5053687;28;20882;-61
2022/07/08 04:17:30;;;;;;;7.30;2.60;;;16.80;99.90;;;;;;5053632;28;20455;-60
2022/07/08 04:19:56;;;;;;;10.20;3.63;;;16.80;99.90;;;;;;5053494;28;20458;-60
2022/07/08 04:22:23;;;;;;;11.93;3.13;;;16.80;99.90;;;;;;5052479;28;20452;-60
2022/07/08 04:24:49;;;;;;;12.10;3.00;;;16.90;99.90;;;;;;5053227;28;20550;-60
2022/07/08 04:27:16;;;;;;;11.53;3.10;;;16.80;99.90;;;;;;5053387;28;20449;-60
2022/07/08 04:29:44;;;;;;;9.23;3.40;;;16.90;99.90;;;;;;5053343;28;20448;-60
2022/07/08 04:32:10;;;;;;;10.07;3.00;;;16.90;99.90;;;;;;5053274;28;20472;-60
2022/07/08 04:34:37;;;;;;;10.30;3.67;;;16.90;99.90;;;;;;5053267;28;20540;-60
2022/07/08 04:37:04;;;;;;;8.50;2.83;;;16.90;99.90;;;;;;5053143;28;20457;-60
2022/07/08 04:39:30;;;;;;;11.83;3.80;;;17.00;99.90;;;;;;5053063;28;20799;-60
2022/07/08 04:41:57;;;;;;;9.50;3.43;;;17.00;99.90;;;;;;5053287;28;20811;-60
2022/07/08 04:44:23;;;;;;;8.60;3.03;;;17.00;99.90;;;;;;5053116;28;20456;-60
2022/07/08 04:46:51;;;;;;;9.30;3.00;;;17.00;99.90;;;;;;5052867;28;20454;-60
2022/07/08 04:49:17;;;;;;;10.00;3.10;;;17.10;99.90;;;;;;5052962;28;20822;-60
2022/07/08 04:51:44;;;;;;;7.07;3.20;;;17.10;99.90;;;;;;5052809;28;20548;-60
2022/07/08 04:54:11;;;;;;;10.20;2.83;;;17.20;99.90;;;;;;5053120;28;20452;-60
2022/07/08 04:56:37;;;;;;;9.40;2.80;;;17.20;99.90;;;;;;5052602;28;21011;-60
2022/07/08 04:59:04;;;;;;;16.57;4.37;;;17.30;99.90;;;;;;5052845;28;20837;-60
2022/07/08 05:01:30;;;;;;;13.23;4.30;;;17.20;99.90;;;;;;5052940;28;20444;-60
2022/07/08 05:03:58;;;;;;;14.13;3.50;;;17.20;99.90;;;;;;5052706;28;20475;-60
2022/07/08 05:06:24;;;;;;;11.60;3.57;;;17.20;99.90;;;;;;5052734;28;20455;-60
2022/07/08 05:08:51;;;;;;;12.53;3.20;;;17.30;99.90;;;;;;5052908;28;20445;-60
2022/07/08 05:11:17;;;;;;;14.77;3.43;;;17.30;99.90;;;;;;5052901;28;20539;-60
2022/07/08 05:13:44;;;;;;;11.97;3.40;;;17.30;99.90;;;;;;5052729;28;20490;-60
2022/07/08 05:16:10;;;;;;;7.80;3.20;;;17.30;99.90;;;;;;5052701;28;20448;-60
2022/07/08 05:18:37;;;;;;;8.30;3.07;;;17.30;99.90;;;;;;5052588;28;21021;-60
2022/07/08 05:21:05;;;;;;;9.97;3.53;;;17.30;99.90;;;;;;5052540;28;20475;-60
2022/07/08 05:23:32;;;;;;;10.03;3.27;;;17.40;99.90;;;;;;5052696;28;20453;-60
2022/07/08 05:25:58;;;;;;;5.90;3.27;;;17.50;99.90;;;;;;5052653;28;20808;-61
2022/07/08 05:28:25;;;;;;;6.60;2.80;;;17.40;99.90;;;;;;5052539;28;20456;-60
2022/07/08 05:30:51;;;;;;;10.70;2.97;;;17.40;99.90;;;;;;5052493;28;20547;-60
2022/07/08 05:33:17;;;;;;;9.47;3.07;;;17.50;99.90;;;;;;5054051;28;20479;-60
2022/07/08 05:35:44;;;;;;;8.07;3.27;;;17.50;99.90;;;;;;5056401;28;20452;-60
2022/07/08 05:38:12;;;;;;;12.80;3.30;;;17.60;99.90;;;;;;5056604;28;20454;-60
2022/07/08 05:40:39;;;;;;;6.50;2.33;;;17.70;99.90;;;;;;5056534;28;20448;-60
2022/07/08 05:43:06;;;;;;;7.90;2.50;;;17.70;99.90;;;;;;5056380;28;20548;-60
2022/07/08 05:45:32;;;;;;;8.10;2.47;;;17.70;99.90;;;;;;5056418;28;20448;-59
2022/07/08 05:47:59;;;;;;;9.40;2.63;;;17.80;99.90;;;;;;5056153;28;20444;-60
2022/07/08 05:50:25;;;;;;;5.50;3.00;;;17.70;99.90;;;;;;5056471;28;20450;-60
2022/07/08 05:52:52;;;;;;;10.50;2.87;;;17.80;99.90;;;;;;5056415;28;20571;-60
2022/07/08 05:55:20;;;;;;;7.70;2.50;;;17.80;99.90;;;;;;5056200;28;20487;-60
2022/07/08 05:57:46;;;;;;;7.37;2.40;;;17.80;99.90;;;;;;5055898;28;20472;-60
2022/07/08 06:00:14;;;;;;;7.60;3.13;;;17.80;99.90;;;;;;5056097;28;20452;-60
2022/07/08 06:02:41;;;;;;;5.47;2.57;;;17.70;99.90;;;;;;5055860;28;20506;-60
2022/07/08 06:05:08;;;;;;;4.73;2.70;;;17.70;99.90;;;;;;5056163;28;20494;-60
2022/07/08 06:07:34;;;;;;;10.80;3.07;;;17.70;99.90;;;;;;5056075;28;20459;-60
2022/07/08 06:10:01;;;;;;;8.50;2.50;;;17.70;99.90;;;;;;5055951;28;20479;-60
2022/07/08 06:12:29;;;;;;;11.27;3.70;;;17.70;99.90;;;;;;5055689;28;20472;-60
2022/07/08 06:14:55;;;;;;;9.20;3.30;;;17.70;99.90;;;;;;5055649;28;20455;-60
2022/07/08 06:17:22;;;;;;;5.90;2.50;;;17.70;99.90;;;;;;5055568;28;20462;-60
2022/07/08 06:19:48;;;;;;;15.43;3.17;;;17.80;99.90;;;;;;5055744;28;20452;-60
2022/07/08 06:22:15;;;;;;;4.90;2.50;;;17.80;99.90;;;;;;5055730;28;20448;-60
2022/07/08 06:24:41;;;;;;;5.60;2.70;;;17.80;99.90;;;;;;5055641;28;20449;-60
2022/07/08 06:27:08;;;;;;;8.57;2.40;;;17.90;99.90;;;;;;5055567;28;20888;-60
2022/07/08 06:29:36;;;;;;;6.77;2.53;;;18.00;99.90;;;;;;5055527;28;20448;-60
2022/07/08 06:32:04;;;;;;;7.70;3.10;;;18.00;99.90;;;;;;5055316;28;20444;-59
2022/07/08 06:34:30;;;;;;;6.53;2.57;;;18.00;99.90;;;;;;5055347;28;20476;-60
2022/07/08 06:36:57;;;;;;;6.43;2.47;;;17.80;99.90;;;;;;5055496;28;20454;-60
2022/07/08 06:39:23;;;;;;;10.37;2.83;;;17.70;99.90;;;;;;5055361;28;20471;-60
2022/07/08 06:41:50;;;;;;;7.10;3.13;;;17.70;99.90;;;;;;5055330;28;20459;-60
2022/07/08 06:44:16;;;;;;;3.97;2.10;;;17.70;99.90;;;;;;5054182;28;20452;-60
2022/07/08 06:46:44;;;;;;;5.53;2.63;;;17.70;99.90;;;;;;5055182;28;20455;-60
2022/07/08 06:49:11;;;;;;;3.87;1.90;;;17.70;99.90;;;;;;5055093;28;20448;-60
2022/07/08 06:51:37;;;;;;;7.13;2.67;;;17.60;99.90;;;;;;5055129;28;20491;-60
2022/07/08 06:56:48;;;;;;;4.90;2.17;;;17.50;99.90;;;;;;5054703;28;20462;-60
2022/07/08 06:59:15;;;;;;;9.83;2.70;;;17.40;99.90;;;;;;5055097;28;20535;-60
2022/07/08 07:01:41;;;;;;;5.97;2.50;;;17.30;99.90;;;;;;5054985;28;20448;-60
2022/07/08 07:04:09;;;;;;;4.40;2.30;;;17.20;99.90;;;;;;5054864;28;20938;-60
2022/07/08 07:06:36;;;;;;;3.90;2.00;;;17.30;99.90;;;;;;5054675;28;20900;-59
2022/07/08 07:09:03;;;;;;;4.10;2.23;;;17.30;99.90;;;;;;5054753;28;20491;-59
2022/07/08 07:11:29;;;;;;;5.80;2.10;;;17.30;99.90;;;;;;5054595;28;20491;-59
2022/07/08 07:13:56;;;;;;;6.10;2.30;;;17.30;99.90;;;;;;5068022;28;20490;-59
2022/07/08 07:16:23;;;;;;;5.20;2.77;;;17.40;99.90;;;;;;5067814;28;20462;-59
2022/07/08 07:18:49;;;;;;;7.47;2.37;;;17.50;99.90;;;;;;5074363;28;20453;-58
2022/07/08 07:21:17;;;;;;;6.63;2.53;;;17.50;99.90;;;;;;5065659;28;20809;-60
2022/07/08 07:23:43;;;;;;;9.00;2.03;;;17.50;99.90;;;;;;5069835;28;20553;-65
2022/07/08 07:26:10;;;;;;;11.15;3.80;;;17.60;99.90;;;;;;5053567;28;20458;-66
2022/07/08 07:28:36;;;;;;;9.90;4.47;;;17.60;99.90;;;;;;5058676;28;20194;-65
2022/07/08 07:31:03;;;;;;;11.77;4.00;;;17.50;99.90;;;;;;5060492;28;20555;-59
2022/07/08 07:33:30;;;;;;;9.53;3.60;;;17.50;99.90;;;;;;5065870;28;20566;-61
2022/07/08 07:35:57;;;;;;;6.37;2.70;;;17.50;99.90;;;;;;5062164;28;21089;-59
2022/07/08 07:38:24;;;;;;;9.53;5.27;;;17.40;99.90;;;;;;5072077;28;21034;-60
2022/07/08 07:40:51;;;;;;;9.63;3.47;;;17.40;99.90;;;;;;5060744;28;20789;-59
2022/07/08 07:43:18;;;;;;;13.00;3.43;;;17.30;99.90;;;;;;5059573;28;20555;-60
2022/07/08 07:45:44;;;;;;;9.20;3.57;;;17.30;99.90;;;;;;5073220;28;20462;-58
2022/07/08 07:48:11;;;;;;;7.53;3.40;;;17.30;99.90;;;;;;5072029;28;20477;-58
2022/07/08 07:50:37;;;;;;;8.37;2.77;;;17.20;99.90;;;;;;5073748;28;20552;-58
2022/07/08 07:53:04;;;;;;;9.07;3.00;;;17.20;99.90;;;;;;5073573;28;20476;-59
2022/07/08 07:55:32;;;;;;;9.57;3.40;;;17.20;99.90;;;;;;5073671;28;20493;-58
2022/07/08 07:57:58;;;;;;;10.43;3.50;;;17.20;99.90;;;;;;5062216;28;20964;-60
2022/07/08 08:00:25;;;;;;;9.40;3.10;;;17.10;99.90;;;;;;5064366;28;20784;-60
2022/07/08 08:02:52;;;;;;;13.18;3.67;;;17.10;99.90;;;;;;5066437;28;20466;-60
2022/07/08 08:05:19;;;;;;;9.47;3.33;;;17.10;99.90;;;;;;5072774;28;20193;-60
2022/07/08 08:07:45;;;;;;;8.83;3.13;;;17.10;99.90;;;;;;5073122;28;20466;-62
2022/07/08 08:10:14;;;;;;;7.60;2.53;;;17.00;99.90;;;;;;5073573;28;20866;-60
2022/07/08 08:12:43;;;;;;;10.97;3.00;;;17.00;99.90;;;;;;5073427;28;20451;-60
2022/07/08 08:15:09;;;;;;;11.27;3.37;;;17.10;99.90;;;;;;5073344;28;20447;-60
2022/07/08 08:17:37;;;;;;;11.50;3.47;;;17.10;99.90;;;;;;5065218;28;20813;-60
2022/07/08 08:20:05;;;;;;;10.10;2.80;;;17.10;99.90;;;;;;5071791;28;20930;-60
2022/07/08 08:22:32;;;;;;;15.67;3.20;;;17.10;99.90;;;;;;5071362;28;20633;-59
2022/07/08 08:24:58;;;;;;;10.50;3.50;;;17.10;99.90;;;;;;5071904;28;20455;-62
2022/07/08 08:27:25;;;;;;;8.60;3.10;;;17.10;99.90;;;;;;5067735;28;20456;-62
2022/07/08 08:29:53;;;;;;;7.70;2.90;;;17.20;99.90;;;;;;5064431;28;20479;-63
2022/07/08 08:32:19;;;;;;;5.57;2.87;;;17.20;99.90;;;;;;5071836;28;20443;-63
2022/07/08 08:34:46;;;;;;;5.40;2.60;;;17.20;99.90;;;;;;5072634;28;20506;-62
2022/07/08 08:37:13;;;;;;;7.90;2.80;;;17.20;99.90;;;;;;5073042;28;20458;-63
2022/07/08 08:39:40;;;;;;;5.23;2.50;;;17.30;99.90;;;;;;5072464;28;20454;-63
2022/07/08 08:42:08;;;;;;;6.07;3.43;;;17.40;99.90;;;;;;5072878;28;20451;-63
2022/07/08 08:44:34;;;;;;;9.73;2.83;;;17.50;99.90;;;;;;5070690;28;20863;-61
2022/07/08 08:47:04;;;;;;;7.53;2.80;;;17.50;99.90;;;;;;5068970;28;20538;-62
2022/07/08 08:49:35;;;;;;;10.53;2.33;;;17.50;99.90;;;;;;5070596;28;20491;-60
2022/07/08 08:52:04;;;;;;;6.27;2.23;;;17.60;99.90;;;;;;5070881;28;20451;-60
2022/07/08 08:54:34;;;;;;;6.90;3.03;;;17.70;99.90;;;;;;5073041;28;20506;-62
2022/07/08 08:57:01;;;;;;;12.23;2.33;;;17.80;99.90;;;;;;5071068;28;20501;-59
2022/07/08 08:59:28;;;;;;;7.13;2.20;;;17.80;99.90;;;;;;5070754;28;20464;-59
2022/07/08 09:01:55;;;;;;;9.90;3.10;;;17.90;99.90;;;;;;5070894;28;20487;-60
2022/07/08 09:04:24;;;;;;;4.70;1.50;;;18.10;99.90;;;;;;5075431;28;20459;-60
2022/07/08 09:06:50;;;;;;;7.40;2.10;;;18.10;99.90;;;;;;5071195;28;20455;-59
2022/07/08 09:09:16;;;;;;;5.30;1.90;;;18.20;99.90;;;;;;5072228;28;20515;-60
2022/07/08 09:11:44;;;;;;;5.00;2.50;;;18.30;99.90;;;;;;5072001;28;20530;-60
2022/07/08 09:14:16;;;;;;;5.13;2.30;;;18.30;99.90;;;;;;5070360;28;20483;-63
2022/07/08 09:17:05;;;;;;;7.38;1.98;;;18.40;99.90;;;;;;5071572;28;20523;-63
2022/07/08 09:19:33;;;;;;;5.50;1.83;;;18.40;99.90;;;;;;5072655;28;20189;-60
2022/07/08 09:21:59;;;;;;;6.80;2.20;;;18.40;99.90;;;;;;5065395;28;20492;-61
2022/07/08 09:24:27;;;;;;;8.30;2.83;;;18.50;99.90;;;;;;5071428;28;20542;-61
2022/07/08 09:26:54;;;;;;;7.30;2.20;;;18.50;99.90;;;;;;5070240;28;20508;-61
2022/07/08 09:29:21;;;;;;;9.93;2.17;;;18.60;99.90;;;;;;5071499;28;20802;-60
2022/07/08 09:31:47;;;;;;;10.10;2.30;;;18.60;99.90;;;;;;5071643;28;20539;-61
2022/07/08 09:34:16;;;;;;;6.70;1.70;;;18.60;99.90;;;;;;5062839;28;20475;-60
2022/07/08 09:36:47;;;;;;;5.88;1.80;;;18.60;99.90;;;;;;5070582;28;20811;-58
2022/07/08 09:39:24;;;;;;;3.17;2.07;;;18.60;99.90;;;;;;5070462;28;20193;-59
2022/07/08 09:41:51;;;;;;;5.77;1.93;;;18.70;99.90;;;;;;5068089;28;20451;-63
2022/07/08 09:44:19;;;;;;;6.73;2.30;;;18.70;99.90;;;;;;5066350;28;20806;-62
2022/07/08 09:46:46;;;;;;;4.00;1.90;;;18.60;99.90;;;;;;5069409;28;20452;-63
2022/07/08 09:49:28;;;;;;;6.23;2.13;;;18.60;99.90;;;;;;5069949;28;20490;-63
2022/07/08 09:51:56;;;;;;;7.47;2.30;;;18.50;99.90;;;;;;5066479;28;20450;-61
2022/07/08 09:54:23;;;;;;;7.73;2.40;;;18.60;99.90;;;;;;5072860;28;20549;-61
2022/07/08 09:57:00;;;;;;;8.13;2.00;;;18.50;99.90;;;;;;5071162;28;20485;-54
2022/07/08 09:59:27;;;;;;;3.53;1.73;;;18.60;99.90;;;;;;5057522;28;20521;-59
2022/07/08 10:01:54;;;;;;;8.82;2.30;;;18.60;99.90;;;;;;5059709;28;20458;-58
2022/07/08 10:04:22;;;;;;;6.40;2.90;;;18.50;99.90;;;;;;5063732;28;20572;-58
2022/07/08 10:06:50;;;;;;;3.70;1.80;;;18.50;99.90;;;;;;5072250;28;20443;-58
2022/07/08 10:09:18;;;;;;;5.73;1.43;;;18.40;99.90;;;;;;5071748;28;20447;-58
2022/07/08 10:11:45;;;;;;;7.93;1.83;;;18.40;99.90;;;;;;5071552;28;20548;-58
2022/07/08 10:14:11;;;;;;;6.10;2.27;;;18.40;99.90;;;;;;5072087;28;20985;-58
2022/07/08 10:16:40;;;;;;;8.10;2.17;;;18.40;99.90;;;;;;5071923;28;20511;-57
2022/07/08 10:19:10;;;;;;;4.63;2.13;;;18.40;99.90;;;;;;5072276;28;20543;-58
2022/07/08 10:21:40;;;;;;;7.27;2.00;;;18.40;99.90;;;;;;5075621;28;20455;-57
2022/07/08 10:24:08;;;;;;;7.40;1.77;;;18.40;99.90;;;;;;5075652;28;20454;-58
2022/07/08 10:26:40;;;;;;;5.63;1.80;;;18.40;99.90;;;;;;5075419;28;20811;-58
2022/07/08 10:29:08;;;;;;;9.77;1.90;;;18.40;99.90;;;;;;5075439;28;20500;-58
2022/07/08 10:31:43;;;;;;;8.73;2.00;;;18.40;99.90;;;;;;5075313;28;20447;-58
2022/07/08 10:34:11;;;;;;;5.67;2.43;;;18.40;99.90;;;;;;5075466;28;20975;-58
2022/07/08 10:36:47;;;;;;;3.83;1.80;;;18.40;99.90;;;;;;5075306;28;20458;-58
2022/07/08 10:39:14;;;;;;;1.70;1.50;;;18.40;99.90;;;;;;5075346;28;20530;-58
2022/07/08 10:41:56;;;;;;;5.80;2.40;;;18.50;99.90;;;;;;5075736;28;20792;-58
2022/07/08 10:44:52;;;;;;;4.57;2.00;;;18.60;99.90;;;;;;5075365;28;20459;-58
2022/07/08 10:47:24;;;;;;;3.60;1.60;;;18.80;99.90;;;;;;5075251;28;20458;-58
2022/07/08 10:49:51;;;;;;;4.90;2.03;;;18.90;99.90;;;;;;5075199;28;20443;-58
2022/07/08 10:52:20;;;;;;;3.93;1.90;;;19.20;99.90;;;;;;5074768;28;20453;-58
2022/07/08 10:54:47;;;;;;;8.00;2.20;;;19.40;99.90;;;;;;5075043;28;20483;-58
2022/07/08 10:57:26;;;;;;;7.57;2.27;;;19.70;99.90;;;;;;5074834;28;20475;-58
2022/07/08 11:00:06;;;;;;;6.70;2.53;;;19.90;99.90;;;;;;5074841;28;20439;-58
2022/07/08 11:02:33;;;;;;;4.33;2.00;;;20.10;99.90;;;;;;5074766;28;20451;-58
2022/07/08 11:04:59;;;;;;;5.43;1.93;;;20.20;99.90;;;;;;5074932;28;20790;-58
2022/07/08 11:07:30;;;;;;;5.47;2.23;;;20.30;99.90;;;;;;5074881;28;20454;-58
2022/07/08 11:10:01;;;;;;;5.80;1.90;;;20.30;99.90;;;;;;5074761;28;20520;-59
2022/07/08 11:12:31;;;;;;;3.43;1.70;;;20.40;99.90;;;;;;5074732;28;20453;-58
2022/07/08 11:15:00;;;;;;;6.83;1.90;;;20.60;99.90;;;;;;5074632;28;20475;-58
2022/07/08 11:17:28;;;;;;;6.27;2.77;;;20.90;99.90;;;;;;5074405;28;20483;-58
2022/07/08 11:19:57;;;;;;;6.80;2.03;;;21.10;99.90;;;;;;5074539;28;20538;-58
2022/07/08 11:22:24;;;;;;;4.33;2.00;;;21.00;99.90;;;;;;5074404;28;20457;-58
2022/07/08 11:24:52;;;;;;;7.20;2.30;;;21.00;99.90;;;;;;5074418;28;20542;-59
2022/07/08 11:27:23;;;;;;;2.77;1.70;;;21.00;99.90;;;;;;5074351;28;20445;-58
2022/07/08 11:29:53;;;;;;;4.67;1.50;;;20.90;99.90;;;;;;5074299;28;20490;-58
2022/07/08 11:32:21;;;;;;;9.70;2.87;;;21.10;99.90;;;;;;5073722;28;20965;-58
2022/07/08 11:34:49;;;;;;;3.80;1.70;;;21.40;99.90;;;;;;5074200;28;20514;-58
2022/07/08 11:37:16;;;;;;;5.43;1.80;;;21.80;99.90;;;;;;5074054;28;20946;-58
2022/07/08 11:39:44;;;;;;;3.63;2.20;;;21.90;99.90;;;;;;5073992;28;20447;-58
2022/07/08 11:42:11;;;;;;;2.67;1.63;;;21.90;99.90;;;;;;5074574;28;20479;-58
2022/07/08 11:44:38;;;;;;;4.47;1.40;;;21.90;99.90;;;;;;5073959;28;20964;-58
2022/07/08 11:47:07;;;;;;;3.93;1.43;;;22.10;99.90;;;;;;5074025;28;20453;-58
2022/07/08 11:49:34;;;;;;;5.03;1.60;;;22.00;99.90;;;;;;5073980;28;20452;-58
2022/07/08 11:52:01;;;;;;;4.57;1.70;;;21.80;99.90;;;;;;5073697;28;20641;-59
2022/07/08 11:54:29;;;;;;;4.53;1.87;;;21.90;99.90;;;;;;5073570;28;20550;-59
2022/07/08 11:56:57;;;;;;;3.17;1.47;;;21.90;99.90;;;;;;5073461;28;20873;-59
2022/07/08 11:59:24;;;;;;;5.63;1.93;;;22.20;99.90;;;;;;5073751;28;20444;-59
2022/07/08 12:01:52;;;;;;;4.40;1.70;;;22.40;99.90;;;;;;5073797;28;20974;-59
2022/07/08 12:04:20;;;;;;;2.17;1.40;;;22.40;99.90;;;;;;5073605;28;20465;-59
2022/07/08 12:06:48;;;;;;;5.27;1.80;;;22.30;99.90;;;;;;5073563;28;20477;-58
2022/07/08 12:09:15;;;;;;;5.00;1.37;;;22.40;99.90;;;;;;5073424;28;20451;-59
2022/07/08 12:11:42;;;;;;;3.17;1.20;;;22.30;99.90;;;;;;5073677;28;20542;-59
2022/07/08 12:14:10;;;;;;;2.47;1.33;;;22.70;99.90;;;;;;5073765;28;20534;-59
2022/07/08 12:16:42;;;;;;;4.23;1.70;;;22.90;99.90;;;;;;5073358;28;20451;-59
2022/07/08 12:19:30;;;;;;;4.77;2.77;;;22.70;99.90;;;;;;5073356;28;20451;-60
2022/07/08 12:21:59;;;;;;;3.90;1.33;;;22.80;99.90;;;;;;5073229;28;20443;-58
2022/07/08 12:24:27;;;;;;;3.00;1.27;;;22.60;99.90;;;;;;5073222;28;20961;-58
2022/07/08 12:26:58;;;;;;;3.23;1.53;;;22.50;99.90;;;;;;5074277;28;20559;-58
2022/07/08 12:29:26;;;;;;;2.50;1.23;;;22.40;99.90;;;;;;5073309;28;20447;-58
2022/07/08 12:31:53;;;;;;;8.70;1.70;;;22.50;99.90;;;;;;5073221;28;20541;-58
2022/07/08 12:34:21;;;;;;;5.27;1.73;;;22.40;99.90;;;;;;5072992;28;20451;-58
2022/07/08 12:36:49;;;;;;;3.17;1.90;;;22.40;99.90;;;;;;5073296;28;20487;-59
2022/07/08 12:39:17;;;;;;;4.07;1.30;;;22.40;99.90;;;;;;5073048;28;20594;-58
2022/07/08 12:41:46;;;;;;;6.13;1.57;;;22.30;99.90;;;;;;5072680;28;20961;-58
2022/07/08 12:44:35;;;;;;;6.00;1.80;;;22.20;99.90;;;;;;5072780;28;20482;-57
2022/07/08 12:47:03;;;;;;;4.33;1.20;;;22.00;99.90;;;;;;5072906;28;20506;-58
2022/07/08 12:49:30;;;;;;;3.07;1.40;;;22.00;99.90;;;;;;5073056;28;20451;-58
2022/07/08 12:52:00;;;;;;;4.40;1.33;;;22.00;99.90;;;;;;5073040;28;20458;-59